Time;durP1;ratioP1;P1;durP2;ratioP2;P2;SDS_P1;SDS_P2;PMS_P1;PMS_P2;Temp;Humidity;BMP_temperature;BMP_pressure;BME280_temperature;BME280_humidity;BME280_pressure;Samples;Min_cycle;Max_cycle;Signal;HPM_P1;HPM_P2
2021/11/18 00:01:16;;;;;;;43.90;18.65;;;;;;;-5.02;78.24;100220.30;1664325;86;20912;-65
2021/11/18 00:03:44;;;;;;;48.80;18.17;;;;;;;-5.08;78.32;100222.42;1692319;84;20928;-64
2021/11/18 00:06:12;;;;;;;39.98;16.85;;;;;;;-5.14;78.52;100209.83;1692274;84;21468;-65
2021/11/18 00:08:40;;;;;;;37.17;15.65;;;;;;;-5.19;78.56;100213.61;1692238;84;20900;-65
2021/11/18 00:11:09;;;;;;;42.05;15.70;;;;;;;-5.26;78.64;100206.91;1684147;84;21152;-65
2021/11/18 00:13:44;;;;;;;45.50;18.13;;;;;;;-5.30;78.84;100204.81;1680111;84;20908;-66
2021/11/18 00:16:11;;;;;;;41.80;16.87;;;;;;;-5.39;78.87;100206.31;1692187;84;20910;-65
2021/11/18 00:18:38;;;;;;;44.38;19.10;;;;;;;-5.43;79.04;100204.22;1656085;85;20971;-65
2021/11/18 00:21:15;;;;;;;41.37;17.32;;;;;;;-5.49;79.11;100201.81;1687612;85;21031;-66
2021/11/18 00:23:48;;;;;;;50.78;18.52;;;;;;;-5.52;79.43;100206.73;1682618;84;21834;-66
2021/11/18 00:26:16;;;;;;;49.42;18.80;;;;;;;-5.54;79.58;100200.75;1694211;84;21525;-66
2021/11/18 00:28:42;;;;;;;45.03;17.75;;;;;;;-5.56;79.94;100203.62;1694323;84;20898;-66
2021/11/18 00:31:09;;;;;;;47.65;19.75;;;;;;;-5.58;79.98;100197.64;1689069;84;20955;-66
2021/11/18 00:33:36;;;;;;;45.20;19.30;;;;;;;-5.59;80.09;100200.50;1690239;84;21502;-66
2021/11/18 00:36:05;;;;;;;47.20;18.82;;;;;;;-5.63;79.95;100204.08;1694075;84;21182;-66
2021/11/18 00:38:33;;;;;;;48.63;19.07;;;;;;;-5.66;79.81;100204.47;1689024;84;20861;-64
2021/11/18 00:40:59;;;;;;;41.40;18.67;;;;;;;-5.69;79.53;100203.01;1681829;84;20939;-64
2021/11/18 00:43:27;;;;;;;48.58;20.65;;;;;;;-5.77;79.28;100203.66;1685292;84;21051;-62
2021/11/18 00:45:53;;;;;;;46.95;18.05;;;;;;;-5.87;79.17;100198.68;1671872;84;20911;-63
2021/11/18 00:48:20;;;;;;;49.60;20.20;;;;;;;-5.94;79.11;100205.02;1692175;84;21122;-64
2021/11/18 00:50:53;;;;;;;46.08;19.75;;;;;;;-6.06;79.10;100198.85;1692261;84;20936;-64
2021/11/18 00:53:20;;;;;;;44.48;18.10;;;;;;;-6.11;79.24;100203.95;1678207;84;21427;-63
2021/11/18 00:55:47;;;;;;;46.95;18.37;;;;;;;-6.18;79.13;100207.06;1682378;84;21055;-64
2021/11/18 00:58:13;;;;;;;49.93;17.50;;;;;;;-6.27;79.10;100201.53;1693858;84;20932;-64
2021/11/18 01:00:41;;;;;;;48.08;18.70;;;;;;;-6.33;79.14;100203.63;1660842;84;22437;-63
2021/11/18 01:03:09;;;;;;;42.70;18.37;;;;;;;-6.41;79.22;100195.25;1696670;84;20988;-63
2021/11/18 01:05:40;;;;;;;44.85;18.70;;;;;;;-6.47;79.26;100190.67;1695470;84;21493;-63
2021/11/18 01:08:07;;;;;;;43.73;18.05;;;;;;;-6.53;79.21;100191.94;1690699;84;20924;-63
2021/11/18 01:10:42;;;;;;;49.53;19.42;;;;;;;-6.60;79.39;100191.03;1691941;84;21478;-62
2021/11/18 01:13:09;;;;;;;43.33;18.25;;;;;;;-6.64;79.40;100189.75;1695406;84;22378;-63
2021/11/18 01:15:37;;;;;;;44.15;17.75;;;;;;;-6.72;79.39;100189.36;1695453;84;21541;-62
2021/11/18 01:18:06;;;;;;;44.65;18.12;;;;;;;-6.78;79.46;100188.27;1675737;84;21010;-63
2021/11/18 01:20:34;;;;;;;45.85;19.32;;;;;;;-6.84;79.45;100198.36;1691989;84;21447;-64
2021/11/18 01:23:06;;;;;;;45.75;19.12;;;;;;;-6.89;79.67;100194.59;1694810;83;20897;-63
2021/11/18 01:25:35;;;;;;;41.60;17.98;;;;;;;-6.92;79.75;100190.97;1687893;84;21104;-63
2021/11/18 01:28:05;;;;;;;48.83;18.48;;;;;;;-6.94;79.92;100185.02;1690802;84;21116;-64
2021/11/18 01:30:32;;;;;;;51.63;20.40;;;;;;;-6.94;80.04;100182.34;1695834;84;21476;-64
2021/11/18 01:32:59;;;;;;;43.00;18.05;;;;;;;-6.93;80.24;100183.46;1692600;84;20940;-64
2021/11/18 01:35:31;;;;;;;44.42;19.35;;;;;;;-6.92;80.28;100183.78;1695491;84;21424;-63
2021/11/18 01:37:59;;;;;;;37.13;17.23;;;;;;;-6.95;80.23;100179.36;1695445;84;21157;-63
2021/11/18 01:40:30;;;;;;;43.65;19.92;;;;;;;-6.95;80.28;100171.34;1693268;84;21031;-64
2021/11/18 01:42:59;;;;;;;44.38;17.87;;;;;;;-6.98;80.30;100167.72;1694772;84;20944;-65
2021/11/18 01:45:28;;;;;;;50.23;18.50;;;;;;;-7.02;80.25;100169.94;1687853;85;21044;-64
2021/11/18 01:47:55;;;;;;;46.98;18.95;;;;;;;-7.03;80.47;100172.28;1695524;84;21042;-65
2021/11/18 01:50:26;;;;;;;42.13;18.15;;;;;;;-7.05;80.46;100159.63;1695458;84;21131;-65
2021/11/18 01:52:55;;;;;;;42.10;17.40;;;;;;;-7.07;80.40;100162.48;1650610;84;20943;-64
2021/11/18 01:55:24;;;;;;;44.48;19.02;;;;;;;-7.11;80.36;100151.86;1695505;84;20912;-65
2021/11/18 01:57:51;;;;;;;46.90;17.57;;;;;;;-7.13;80.37;100146.39;1695787;84;20940;-65
2021/11/18 02:00:40;;;;;;;44.38;19.95;;;;;;;-7.14;80.48;100148.73;1692201;84;20896;-66
2021/11/18 02:03:07;;;;;;;50.88;19.73;;;;;;;-7.19;80.47;100145.80;1692918;84;21069;-66
2021/11/18 02:06:00;;;;;;;50.12;19.30;;;;;;;-7.21;80.79;100145.16;1692679;84;21439;-65
2021/11/18 02:08:27;;;;;;;42.58;18.50;;;;;;;-7.23;80.64;100145.85;1694219;84;20912;-64
2021/11/18 02:11:06;;;;;;;41.37;19.48;;;;;;;-7.27;80.60;100145.40;1689010;84;21028;-64
2021/11/18 02:13:32;;;;;;;39.30;17.02;;;;;;;-7.29;80.53;100140.75;1694024;84;20991;-63
2021/11/18 02:16:00;;;;;;;45.75;18.70;;;;;;;-7.32;80.55;100143.28;1687123;84;21794;-63
2021/11/18 02:18:30;;;;;;;43.60;19.15;;;;;;;-7.34;80.62;100141.31;1693858;84;20936;-63
2021/11/18 02:21:00;;;;;;;45.45;18.65;;;;;;;-7.35;80.57;100133.49;1695693;84;20991;-63
2021/11/18 02:23:31;;;;;;;41.02;18.45;;;;;;;-7.37;80.53;100134.19;1690626;84;21556;-64
2021/11/18 02:25:58;;;;;;;59.58;20.05;;;;;;;-7.42;80.52;100137.41;1690504;84;20967;-64
2021/11/18 02:28:28;;;;;;;46.77;18.00;;;;;;;-7.45;80.56;100135.61;1690726;84;21343;-63
2021/11/18 02:30:56;;;;;;;43.50;18.50;;;;;;;-7.47;80.67;100142.47;1665540;84;21031;-63
2021/11/18 02:33:23;;;;;;;38.17;18.12;;;;;;;-7.50;80.56;100146.83;1675662;84;20900;-63
2021/11/18 02:35:50;;;;;;;46.75;19.15;;;;;;;-7.54;80.51;100142.91;1676910;84;21438;-63
2021/11/18 02:38:18;;;;;;;37.58;16.87;;;;;;;-7.58;80.57;100140.80;1694477;84;21004;-63
2021/11/18 02:40:45;;;;;;;36.20;15.55;;;;;;;-7.59;80.79;100141.80;1695360;84;21167;-63
2021/11/18 02:43:17;;;;;;;43.00;17.00;;;;;;;-7.60;80.92;100143.64;1692740;84;20972;-64
2021/11/18 02:45:49;;;;;;;49.33;18.80;;;;;;;-7.60;80.89;100144.16;1693888;84;21046;-64
2021/11/18 02:48:16;;;;;;;;;;;;;;;-7.60;80.90;100142.81;1696248;84;20964;-63
2021/11/18 02:50:48;;;;;;;43.33;18.85;;;;;;;-7.63;80.72;100144.02;1690421;84;20112;-64
2021/11/18 02:53:17;;;;;;;37.67;17.55;;;;;;;-7.66;80.77;100141.20;1671298;84;21797;-64
2021/11/18 02:55:46;;;;;;;41.58;17.30;;;;;;;-7.67;80.95;100141.39;1695461;84;21470;-64
2021/11/18 02:58:13;;;;;;;44.45;18.35;;;;;;;-7.69;80.91;100132.75;1692378;84;20904;-64
2021/11/18 03:01:05;;;;;;;47.88;17.25;;;;;;;-7.71;80.85;100131.59;1686084;85;21483;-64
2021/11/18 03:03:32;;;;;;;46.25;16.95;;;;;;;-7.71;80.91;100128.10;1690523;84;21018;-65
2021/11/18 03:06:00;;;;;;;45.50;18.20;;;;;;;-7.74;80.75;100127.97;1695489;84;21173;-64
2021/11/18 03:08:27;;;;;;;41.18;17.85;;;;;;;-7.76;80.78;100122.49;1692395;84;21038;-64
2021/11/18 03:10:55;;;;;;;45.20;18.15;;;;;;;-7.76;81.13;100123.32;1693948;84;21369;-64
2021/11/18 03:13:23;;;;;;;43.42;16.02;;;;;;;-7.74;81.18;100117.80;1695422;84;20948;-64
2021/11/18 03:15:50;;;;;;;42.35;17.48;;;;;;;-7.73;81.22;100118.95;1694257;84;20908;-64
2021/11/18 03:18:17;;;;;;;42.58;20.20;;;;;;;-7.70;81.43;100126.59;1695359;84;23285;-64
2021/11/18 03:20:45;;;;;;;46.55;20.23;;;;;;;-7.68;81.52;100124.56;1692158;84;20975;-64
2021/11/18 03:23:12;;;;;;;38.38;18.10;;;;;;;-7.62;81.75;100124.34;1693927;84;20916;-65
2021/11/18 03:25:40;;;;;;;47.67;17.95;;;;;;;-7.57;81.82;100129.12;1694139;84;21464;-63
2021/11/18 03:28:16;;;;;;;44.77;18.92;;;;;;;-7.56;81.65;100130.27;1694964;84;36163;-63
2021/11/18 03:30:45;;;;;;;52.23;20.52;;;;;;;-7.54;82.39;100128.75;1695465;84;21173;-63
2021/11/18 03:33:25;;;;;;;45.40;18.32;;;;;;;-7.50;82.49;100118.83;1694227;84;20940;-63
2021/11/18 03:35:51;;;;;;;47.50;18.90;;;;;;;-7.48;82.41;100119.47;1695427;84;21111;-63
2021/11/18 03:38:19;;;;;;;44.38;19.52;;;;;;;-7.47;82.60;100116.30;1695334;84;20951;-62
2021/11/18 03:40:50;;;;;;;49.30;18.17;;;;;;;-7.48;82.60;100116.81;1693981;84;21074;-63
2021/11/18 03:43:20;;;;;;;45.58;19.87;;;;;;;-7.49;82.39;100116.48;1695387;84;21982;-63
2021/11/18 03:45:48;;;;;;;55.12;21.35;;;;;;;-7.54;82.13;100118.08;1691039;84;21029;-62
2021/11/18 03:48:19;;;;;;;59.65;23.10;;;;;;;-7.56;82.68;100115.60;1672435;85;20952;-64
2021/11/18 03:50:44;;;;;;;45.15;19.07;;;;;;;-7.50;83.64;100112.67;1687437;84;20924;-64
2021/11/18 03:53:13;;;;;;;56.83;21.93;;;;;;;-7.37;84.44;100112.84;1692942;84;20937;-63
2021/11/18 03:55:40;;;;;;;60.20;21.80;;;;;;;-7.21;85.53;100105.14;1693230;84;21432;-64
2021/11/18 03:58:08;;;;;;;57.35;24.82;;;;;;;-7.07;85.68;100109.62;1691756;84;20995;-63
2021/11/18 04:00:36;;;;;;;55.55;21.50;;;;;;;-6.99;85.80;100098.83;1695074;84;21068;-63
2021/11/18 04:03:04;;;;;;;52.00;21.57;;;;;;;-6.89;86.13;100100.66;1690232;84;20912;-62
2021/11/18 04:05:32;;;;;;;49.90;21.62;;;;;;;-6.81;86.09;100096.53;1691982;84;20892;-63
2021/11/18 04:08:00;;;;;;;46.18;20.68;;;;;;;-6.76;86.41;100092.78;1695516;84;21131;-63
2021/11/18 04:10:30;;;;;;;61.92;23.98;;;;;;;-6.72;86.44;100085.22;1693776;84;20952;-63
2021/11/18 04:12:56;;;;;;;49.70;20.72;;;;;;;-6.70;86.64;100085.86;1694374;84;21507;-63
2021/11/18 04:15:24;;;;;;;53.13;21.42;;;;;;;-6.68;86.69;100082.48;1695389;84;20904;-63
2021/11/18 04:17:54;;;;;;;51.28;20.85;;;;;;;-6.69;86.48;100083.51;1690064;84;20952;-62
2021/11/18 04:20:23;;;;;;;44.00;19.45;;;;;;;-6.70;86.37;100090.69;1699944;84;21139;-63
2021/11/18 04:22:52;;;;;;;49.93;18.70;;;;;;;-6.72;86.41;100089.23;1695247;84;20936;-63
2021/11/18 04:25:25;;;;;;;46.25;18.87;;;;;;;-6.75;86.09;100092.28;1694028;84;20967;-65
2021/11/18 04:27:51;;;;;;;43.15;19.20;;;;;;;-6.80;85.99;100090.17;1701651;83;20955;-64
2021/11/18 04:30:23;;;;;;;47.08;18.37;;;;;;;-6.85;85.78;100085.91;1690496;82;21562;-64
2021/11/18 04:32:52;;;;;;;41.63;17.70;;;;;;;-6.92;85.53;100079.68;1697786;83;21440;-64
2021/11/18 04:35:19;;;;;;;46.75;18.45;;;;;;;-7.00;85.61;100075.83;1708097;83;21493;-65
2021/11/18 04:37:45;;;;;;;45.63;19.65;;;;;;;-7.05;85.83;100079.06;1692181;83;20961;-64
2021/11/18 04:40:12;;;;;;;49.23;19.50;;;;;;;-7.12;85.79;100075.49;1690553;84;21036;-64
2021/11/18 04:42:41;;;;;;;47.13;17.73;;;;;;;-7.16;85.77;100085.39;1692849;82;20952;-65
2021/11/18 04:45:12;;;;;;;55.10;21.17;;;;;;;-7.20;85.91;100084.95;1692065;84;21312;-65
2021/11/18 04:47:38;;;;;;;45.17;18.60;;;;;;;-7.22;86.00;100078.14;1692219;84;21514;-65
2021/11/18 04:50:07;;;;;;;45.58;21.23;;;;;;;-7.22;86.20;100076.30;1709126;83;21562;-65
2021/11/18 04:52:34;;;;;;;44.55;17.77;;;;;;;-7.23;85.88;100073.31;1660586;86;20893;-65
2021/11/18 04:55:03;;;;;;;41.58;18.25;;;;;;;-7.23;85.75;100079.16;1698387;83;20965;-65
2021/11/18 04:57:31;;;;;;;43.00;19.85;;;;;;;-7.26;85.27;100075.53;1664169;86;21126;-65
2021/11/18 04:59:58;;;;;;;42.15;17.15;;;;;;;-7.30;85.26;100078.25;1706711;83;21626;-64
2021/11/18 05:02:25;;;;;;;49.95;19.48;;;;;;;-7.35;85.13;100072.14;1660910;86;21015;-64
2021/11/18 05:04:52;;;;;;;55.55;22.00;;;;;;;-7.37;85.53;100074.99;1687298;85;21035;-65
2021/11/18 05:07:20;;;;;;;52.90;20.30;;;;;;;-7.35;85.88;100075.64;1653896;85;21082;-66
2021/11/18 05:09:47;;;;;;;48.17;17.40;;;;;;;-7.34;85.69;100070.63;1699847;83;21103;-67
2021/11/18 05:12:14;;;;;;;46.25;18.62;;;;;;;-7.38;85.54;100081.34;1701456;84;20901;-65
2021/11/18 05:14:42;;;;;;;41.05;19.07;;;;;;;-7.41;85.73;100069.71;1699777;84;21008;-64
2021/11/18 05:17:09;;;;;;;48.00;20.17;;;;;;;-7.43;85.74;100075.73;1698667;83;20991;-64
2021/11/18 05:19:35;;;;;;;50.73;20.50;;;;;;;-7.45;85.86;100067.61;1705983;83;21028;-64
2021/11/18 05:22:03;;;;;;;52.58;20.57;;;;;;;-7.45;85.75;100068.94;1700161;83;21906;-65
2021/11/18 05:24:31;;;;;;;49.10;20.88;;;;;;;-7.45;85.58;100070.27;1687643;83;21513;-64
2021/11/18 05:26:58;;;;;;;52.23;19.35;;;;;;;-7.45;85.38;100075.61;1704803;83;20985;-63
2021/11/18 05:29:26;;;;;;;47.55;20.75;;;;;;;-7.46;85.42;100070.78;1692431;83;21530;-65
2021/11/18 05:31:53;;;;;;;43.85;19.35;;;;;;;-7.49;85.67;100071.66;1689474;83;20917;-65
2021/11/18 05:34:39;;;;;;;45.12;19.80;;;;;;;-7.53;86.01;100063.73;1700504;84;21190;-64
2021/11/18 05:37:06;;;;;;;49.30;19.32;;;;;;;-7.54;86.39;100067.42;1701816;84;20984;-65
2021/11/18 05:39:34;;;;;;;54.35;21.40;;;;;;;-7.54;86.70;100070.91;1697653;83;21027;-65
2021/11/18 05:42:01;;;;;;;44.93;20.30;;;;;;;-7.52;86.70;100070.22;1684449;83;20920;-66
2021/11/18 05:44:30;;;;;;;50.12;19.60;;;;;;;-7.49;86.62;100079.66;1703208;83;20924;-64
2021/11/18 05:46:57;;;;;;;45.63;20.00;;;;;;;-7.47;86.33;100081.13;1705544;83;21115;-64
2021/11/18 05:49:25;;;;;;;48.15;21.37;;;;;;;-7.46;86.17;100077.95;1696749;83;20992;-65
2021/11/18 05:51:52;;;;;;;62.90;25.55;;;;;;;-7.44;86.19;100076.75;1703890;83;20964;-65
2021/11/18 05:54:20;;;;;;;43.13;19.75;;;;;;;-7.40;86.26;100082.55;1703053;83;20953;-66
2021/11/18 05:56:46;;;;;;;57.50;22.98;;;;;;;-7.37;86.36;100084.33;1693464;83;21531;-65
2021/11/18 05:59:13;;;;;;;59.93;30.95;;;;;;;-7.35;86.52;100080.14;1696567;83;21221;-66
2021/11/18 06:01:41;;;;;;;49.83;20.52;;;;;;;-7.34;86.66;100077.29;1697010;83;20949;-69
2021/11/18 06:04:09;;;;;;;50.90;21.93;;;;;;;-7.29;87.00;100071.39;1699453;84;21451;-81
2021/11/18 06:06:41;;;;;;;62.53;23.57;;;;;;;-7.22;87.19;100072.80;1704840;84;20878;-68
2021/11/18 06:09:08;;;;;;;66.35;24.65;;;;;;;-7.13;87.42;100079.69;1684615;84;20956;-68
2021/11/18 06:11:37;;;;;;;51.55;21.48;;;;;;;-7.04;87.60;100082.05;1702909;84;21133;-68
2021/11/18 06:14:08;;;;;;;55.12;22.60;;;;;;;-6.91;87.68;100082.67;1694220;84;21508;-70
2021/11/18 06:16:35;;;;;;;103.92;39.53;;;;;;;-6.79;87.76;100078.98;1696633;83;20893;-66
2021/11/18 06:19:05;;;;;;;153.55;59.30;;;;;;;-6.72;87.60;100070.03;1701838;84;20953;-68
2021/11/18 06:21:38;;;;;;;75.65;31.75;;;;;;;-6.64;87.63;100081.09;1702552;84;21523;-82
2021/11/18 06:24:04;;;;;;;62.97;24.30;;;;;;;-6.54;87.70;100088.78;1705527;84;21266;-77
2021/11/18 06:26:32;;;;;;;73.12;25.08;;;;;;;-6.44;87.79;100091.95;1697331;83;21487;-80
2021/11/18 06:28:59;;;;;;;59.77;24.02;;;;;;;-6.30;87.81;100099.03;1676925;84;20969;-80
2021/11/18 06:31:26;;;;;;;56.30;22.65;;;;;;;-6.15;87.96;100102.96;1685051;84;20951;-70
2021/11/18 06:33:53;;;;;;;50.40;21.75;;;;;;;-5.90;88.29;100094.81;1712211;83;21576;-71
2021/11/18 06:36:20;;;;;;;51.90;23.50;;;;;;;-5.36;88.71;100097.54;1695974;83;21146;-71
2021/11/18 06:38:49;;;;;;;60.35;25.05;;;;;;;-4.75;87.60;100085.98;1698576;83;20998;-71
2021/11/18 06:41:15;;;;;;;62.88;23.25;;;;;;;-4.20;86.08;100083.94;1707288;83;21031;-70
2021/11/18 06:43:42;;;;;;;65.95;26.00;;;;;;;-3.78;84.22;100079.95;1654165;86;20960;-70
2021/11/18 06:46:11;;;;;;;57.60;24.80;;;;;;;-3.49;81.92;100078.13;1704876;83;20892;-70
2021/11/18 06:48:38;;;;;;;56.08;23.38;;;;;;;-3.19;81.35;100072.20;1659424;84;21226;-71
2021/11/18 06:51:13;;;;;;;54.77;23.22;;;;;;;-2.87;80.35;100068.51;1694336;83;21445;-71
2021/11/18 06:53:41;;;;;;;44.73;18.42;;;;;;;-2.54;78.49;100066.13;1685083;84;21536;-71
2021/11/18 06:56:08;;;;;;;50.43;21.80;;;;;;;-2.32;76.22;100078.17;1653020;86;20980;-72
2021/11/18 06:58:36;;;;;;;60.15;24.67;;;;;;;-2.27;75.82;100076.97;1699209;83;21056;-69
2021/11/18 07:01:03;;;;;;;47.75;22.87;;;;;;;-2.15;76.16;100094.05;1685541;84;21699;-69
2021/11/18 07:03:32;;;;;;;51.55;25.37;;;;;;;-1.84;75.79;100085.60;1689160;84;20992;-71
2021/11/18 07:05:59;;;;;;;58.08;23.38;;;;;;;-1.51;73.78;100090.11;1683012;84;20996;-70
2021/11/18 07:08:26;;;;;;;54.10;21.15;;;;;;;-1.30;73.67;100090.71;1709264;84;21000;-71
2021/11/18 07:10:53;;;;;;;49.42;22.10;;;;;;;-1.12;73.00;100077.20;1682975;84;20912;-70
2021/11/18 07:13:23;;;;;;;51.15;21.65;;;;;;;-0.96;71.50;100069.02;1706554;83;20885;-71
2021/11/18 07:15:52;;;;;;;52.15;21.85;;;;;;;-0.80;70.56;100062.99;1692977;83;20949;-70
2021/11/18 07:18:21;;;;;;;59.67;23.70;;;;;;;-0.68;70.19;100066.55;1651629;86;21420;-68
2021/11/18 07:20:50;;;;;;;58.85;24.05;;;;;;;-0.44;70.15;100070.94;1652977;86;21522;-67
2021/11/18 07:23:20;;;;;;;48.50;21.33;;;;;;;-0.30;68.50;100071.55;1651509;86;21008;-68
2021/11/18 07:25:52;;;;;;;48.50;19.82;;;;;;;-0.23;68.51;100078.19;1653740;86;21156;-68
2021/11/18 07:28:21;;;;;;;41.60;21.85;;;;;;;-0.13;67.43;100071.70;1657055;83;20952;-71
2021/11/18 07:30:48;;;;;;;48.58;21.68;;;;;;;-0.06;68.26;100067.84;1684903;84;20909;-68
2021/11/18 07:33:15;;;;;;;43.20;20.48;;;;;;;0.18;67.18;100052.97;1713817;83;20988;-70
2021/11/18 07:35:42;;;;;;;53.87;20.10;;;;;;;0.30;66.17;100050.55;1674620;85;21446;-70
2021/11/18 07:38:09;;;;;;;47.15;21.20;;;;;;;0.36;65.95;100060.12;1712713;83;21546;-71
2021/11/18 07:40:38;;;;;;;39.95;19.07;;;;;;;0.43;66.03;100054.89;1676992;85;20956;-70
2021/11/18 07:43:07;;;;;;;45.95;21.48;;;;;;;0.57;65.14;100054.92;1699064;83;20968;-73
2021/11/18 07:45:59;;;;;;;40.88;19.42;;;;;;;0.55;65.50;100052.98;1694806;83;21019;-72
2021/11/18 07:48:28;;;;;;;44.95;19.25;;;;;;;0.69;65.71;100036.48;1713215;83;20956;-69
2021/11/18 07:50:55;;;;;;;52.20;22.52;;;;;;;0.91;65.50;100034.77;1709977;82;21220;-70
2021/11/18 07:53:24;;;;;;;41.60;18.50;;;;;;;1.12;65.67;100035.99;1715107;83;21554;-70
2021/11/18 07:55:52;;;;;;;47.88;21.60;;;;;;;1.39;63.96;100025.37;1655375;86;21083;-71
2021/11/18 07:58:18;;;;;;;43.83;20.68;;;;;;;1.37;64.58;100034.25;1653433;86;21170;-69
2021/11/18 08:00:47;;;;;;;58.38;25.08;;;;;;;1.51;64.35;100022.88;1683536;85;21016;-71
2021/11/18 08:03:22;;;;;;;66.60;27.73;;;;;;;1.68;63.78;100029.66;1652709;86;21541;-71
2021/11/18 08:05:50;;;;;;;148.90;43.30;;;;;;;1.81;64.04;100031.19;1644645;85;20985;-69
2021/11/18 08:08:18;;;;;;;160.48;47.05;;;;;;;1.97;63.75;100037.95;1662882;84;21015;-71
2021/11/18 08:10:44;;;;;;;136.25;48.42;;;;;;;2.09;63.73;100032.45;1683788;84;20921;-75
2021/11/18 08:13:12;;;;;;;54.27;23.83;;;;;;;2.22;64.02;100034.81;1664189;84;20988;-70
2021/11/18 08:15:39;;;;;;;49.10;23.87;;;;;;;2.43;64.20;100041.30;1682587;85;21132;-68
2021/11/18 08:18:07;;;;;;;45.23;23.32;;;;;;;2.81;63.12;100049.12;1679788;85;21011;-70
2021/11/18 08:20:34;;;;;;;47.25;20.45;;;;;;;3.03;62.50;100046.38;1686537;83;21056;-69
2021/11/18 08:23:02;;;;;;;54.85;25.15;;;;;;;3.24;62.23;100034.13;1679806;85;20960;-68
2021/11/18 08:25:31;;;;;;;60.08;26.97;;;;;;;3.51;61.46;100034.10;1682517;85;20964;-71
2021/11/18 08:27:58;;;;;;;62.00;27.82;;;;;;;4.04;61.48;100030.20;1715962;83;21827;-73
2021/11/18 08:30:28;;;;;;;56.58;26.90;;;;;;;4.04;61.48;100030.20;1701678;83;21478;-79
2021/11/18 08:32:59;;;;;;;53.70;24.95;;;;;;;4.41;60.25;100023.34;1703683;83;20905;-76
2021/11/18 08:35:31;;;;;;;64.58;28.65;;;;;;;4.74;59.88;100017.50;1683664;85;20979;-72
2021/11/18 08:38:13;;;;;;;58.48;26.90;;;;;;;4.99;57.99;100008.61;1656801;86;20968;-72
2021/11/18 08:40:44;;;;;;;44.15;22.50;;;;;;;5.14;58.22;100011.38;1687000;84;21140;-75
2021/11/18 08:43:11;;;;;;;47.35;20.90;;;;;;;5.44;57.59;100015.22;1658490;85;20921;-82
2021/11/18 08:45:38;;;;;;;42.75;19.73;;;;;;;5.63;57.16;100016.33;1702760;83;21015;-74
2021/11/18 08:48:06;;;;;;;38.08;19.10;;;;;;;5.73;56.29;100018.24;1708079;83;21127;-79
2021/11/18 08:50:35;;;;;;;30.48;16.73;;;;;;;5.78;56.30;100019.58;1667054;85;20956;-80
2021/11/18 08:53:02;;;;;;;46.95;18.10;;;;;;;5.89;56.33;100019.33;1680282;84;21755;-82
2021/11/18 08:55:33;;;;;;;37.67;17.55;;;;;;;6.06;55.95;100032.67;1683429;83;20994;-84
2021/11/18 08:58:02;;;;;;;34.38;16.95;;;;;;;6.18;55.30;100031.84;1687986;83;20976;-72
2021/11/18 09:00:45;;;;;;;34.65;17.45;;;;;;;6.15;55.07;100028.85;1647277;84;20997;-80
2021/11/18 09:03:13;;;;;;;37.38;16.73;;;;;;;6.10;55.36;100026.95;1678404;84;21012;-75
2021/11/18 09:05:41;;;;;;;36.48;16.42;;;;;;;6.18;55.05;100019.58;1680161;83;21584;-73
2021/11/18 09:08:12;;;;;;;32.98;16.27;;;;;;;6.19;55.05;100014.95;1655027;85;21483;-79
2021/11/18 09:10:40;;;;;;;33.92;15.88;;;;;;;6.23;55.88;100011.94;1678043;84;21096;-83
2021/11/18 09:13:09;;;;;;;35.78;17.55;;;;;;;6.52;55.68;100008.84;1691316;83;21033;-73
2021/11/18 09:15:36;;;;;;;27.85;15.53;;;;;;;6.75;54.98;100004.67;1684687;84;21547;-76
2021/11/18 09:18:06;;;;;;;30.65;16.52;;;;;;;6.52;54.44;99995.20;1688613;84;21151;-79
2021/11/18 09:20:38;;;;;;;30.17;16.12;;;;;;;5.91;55.56;99996.72;1693037;83;20916;-76
2021/11/18 09:23:05;;;;;;;33.25;16.52;;;;;;;5.39;57.05;99990.16;1674282;83;21060;-69
2021/11/18 09:25:40;;;;;;;29.75;16.12;;;;;;;5.38;58.54;99986.34;1672614;84;21463;-71
2021/11/18 09:28:08;;;;;;;30.85;15.45;;;;;;;5.59;58.58;99981.19;1671616;83;21128;-71
2021/11/18 09:30:41;;;;;;;33.23;15.63;;;;;;;5.85;58.45;99990.97;1676776;83;21148;-74
2021/11/18 09:33:09;;;;;;;28.25;14.85;;;;;;;6.19;57.75;99990.41;1674862;85;21544;-75
2021/11/18 09:35:44;;;;;;;43.60;18.98;;;;;;;6.57;57.12;99984.82;1686013;84;21076;-70
2021/11/18 09:38:11;;;;;;;69.22;27.58;;;;;;;6.90;56.01;99972.40;1644210;85;21010;-70
2021/11/18 09:40:52;;;;;;;33.50;14.78;;;;;;;6.80;55.07;99970.53;1662569;85;21041;-70
2021/11/18 09:43:36;;;;;;;;;;;;;;;6.23;55.85;99966.95;1688914;83;21553;-71
2021/11/18 09:46:35;;;;;;;34.83;15.65;;;;;;;5.90;57.12;99973.83;1692823;83;20260;-69
2021/11/18 09:49:41;;;;;;;34.85;17.30;;;;;;;5.69;58.75;99973.02;1685442;83;21064;-69
2021/11/18 09:52:22;;;;;;;29.52;17.00;;;;;;;5.83;58.62;99975.44;1666226;84;21044;-69
2021/11/18 09:55:12;;;;;;;34.48;17.42;;;;;;;5.91;58.68;99967.28;1692159;83;21135;-69
2021/11/18 09:58:17;;;;;;;25.85;14.53;;;;;;;5.90;58.18;99963.74;1659589;85;21112;-73
2021/11/18 10:00:53;;;;;;;34.03;15.80;;;;;;;5.79;58.63;99954.45;1685870;84;20938;-68
2021/11/18 10:03:57;;;;;;;32.63;16.62;;;;;;;5.61;58.87;99949.88;1684519;84;20999;-68
2021/11/18 10:06:29;;;;;;;31.07;15.03;;;;;;;5.44;59.24;99947.97;1693201;84;21056;-68
2021/11/18 10:09:23;;;;;;;30.70;14.18;;;;;;;5.31;59.80;99932.98;1677950;83;20980;-68
2021/11/18 10:12:17;;;;;;;32.73;15.05;;;;;;;5.39;60.11;99939.80;1683406;84;21170;-70
2021/11/18 10:15:03;;;;;;;29.07;13.53;;;;;;;5.31;59.88;99937.06;1658147;84;21067;-71
2021/11/18 10:17:39;;;;;;;31.23;16.12;;;;;;;5.07;60.49;99939.24;1685980;83;20902;-69
2021/11/18 10:20:30;;;;;;;44.08;20.68;;;;;;;4.80;61.43;99942.17;1684289;83;22094;-70
2021/11/18 10:23:09;;;;;;;30.40;16.37;;;;;;;4.59;62.06;99927.18;1685207;83;21087;-70
2021/11/18 10:25:51;;;;;;;29.00;13.20;;;;;;;4.57;62.62;99926.63;1681428;83;21134;-70
2021/11/18 10:28:26;;;;;;;28.90;14.18;;;;;;;4.55;62.70;99922.00;1683782;84;21061;-71
2021/11/18 10:31:16;;;;;;;27.85;13.75;;;;;;;4.40;63.04;99920.59;1685269;84;20913;-75
2021/11/18 10:33:49;;;;;;;27.62;13.55;;;;;;;4.29;63.89;99917.00;1686830;84;20953;-74
2021/11/18 10:36:40;;;;;;;23.35;13.13;;;;;;;4.29;63.89;99917.00;1676208;84;21094;-73
2021/11/18 10:39:49;;;;;;;34.35;13.93;;;;;;;4.25;64.11;99910.46;1667079;84;21679;-72
2021/11/18 10:42:42;;;;;;;27.22;14.00;;;;;;;4.17;64.19;99912.33;1667217;85;21157;-74
2021/11/18 10:45:34;;;;;;;32.08;14.03;;;;;;;4.14;64.39;99907.96;1704544;83;21016;-71
2021/11/18 10:48:22;;;;;;;24.35;13.05;;;;;;;4.28;64.62;99907.76;1662927;85;21512;-69
2021/11/18 10:51:00;;;;;;;32.63;14.55;;;;;;;5.24;62.41;99908.48;1661084;85;20957;-69
2021/11/18 10:53:50;;;;;;;32.67;14.23;;;;;;;5.24;62.41;99908.48;1684930;84;21607;-71
2021/11/18 10:56:21;;;;;;;31.82;15.30;;;;;;;5.39;61.39;99913.92;1666757;85;20941;-69
2021/11/18 10:59:13;;;;;;;23.80;13.53;;;;;;;5.54;61.13;99909.02;1672600;84;20952;-70
2021/11/18 11:01:47;;;;;;;31.65;14.90;;;;;;;5.63;60.19;99911.47;1683664;83;21068;-74
2021/11/18 11:04:36;;;;;;;30.35;13.62;;;;;;;5.56;59.79;99910.92;1676893;84;20943;-70
2021/11/18 11:07:02;;;;;;;30.15;14.83;;;;;;;5.36;60.20;99904.94;1689249;84;21545;-70
2021/11/18 11:09:38;;;;;;;26.85;15.32;;;;;;;5.22;60.74;99903.85;1691806;83;21112;-72
2021/11/18 11:12:31;;;;;;;32.75;15.28;;;;;;;5.06;61.26;99894.89;1682106;84;21496;-74
2021/11/18 11:15:36;;;;;;;;;;;;;;;5.06;61.26;99894.89;1692518;83;21124;-73
2021/11/18 11:18:25;;;;;;;26.35;14.25;;;;;;;4.90;61.58;99889.97;1696794;83;20164;-67
2021/11/18 11:21:16;;;;;;;32.42;16.60;;;;;;;4.77;61.96;99893.20;1672021;84;21948;-69
2021/11/18 11:24:10;;;;;;;28.52;14.90;;;;;;;4.61;62.38;99891.56;1686529;84;21005;-71
2021/11/18 11:27:17;;;;;;;42.78;20.80;;;;;;;4.48;62.85;99881.19;1658666;84;21061;-69
2021/11/18 11:29:57;;;;;;;33.18;16.55;;;;;;;4.49;63.28;99881.47;1676172;85;20944;-71
2021/11/18 11:32:40;;;;;;;34.25;18.12;;;;;;;4.64;62.94;99878.22;1684740;83;20944;-69
2021/11/18 11:35:39;;;;;;;43.95;20.20;;;;;;;4.68;62.96;99889.92;1690577;83;21208;-72